Huntly, Virginia
Current Conditions -  °F | °C
As of 8:35 PM on Thursday 27 Nov 2014 (Local Time) from KFRR Reporting Station
Overcast Overcast  
Wind Chill: 29°   Ceiling: 8000
Heat Index: 36°   Visibility: 10mi
Dew Point: 27°   Wind: 9mph
Humidity: 70%   Direction: 290°WNW
Pressure: 30.15"   Gusts: NA
Location:  38.83°N, 78.11°W
Report Text: KFRR 280135Z AUTO 29008KT 10SM SCT041 OVC080 02/M03 A3015 RMK AO1
Loading
Personal Weather Stations






























Interactive Weather Map New forecast layout! Learn more

10-Day Weather Forecast

Advertisements
Track Severe Weather on mobile